sensor_id;sensor_type;location;lat;lon;timestamp;P1;durP1;ratioP1;P2;durP2;ratioP2
20026;SDS011;10174;42.688;23.344;2023-03-23T00:02:29;130.98;;;62.88;;
20026;SDS011;10174;42.688;23.344;2023-03-23T00:05:00;145.00;;;68.40;;
20026;SDS011;10174;42.688;23.344;2023-03-23T00:07:31;141.70;;;67.85;;
20026;SDS011;10174;42.688;23.344;2023-03-23T00:09:57;158.02;;;67.32;;
20026;SDS011;10174;42.688;23.344;2023-03-23T00:12:24;147.43;;;67.95;;
20026;SDS011;10174;42.688;23.344;2023-03-23T00:14:53;154.88;;;71.88;;
20026;SDS011;10174;42.688;23.344;2023-03-23T00:17:22;160.15;;;74.18;;
20026;SDS011;10174;42.688;23.344;2023-03-23T00:19:48;148.52;;;71.85;;
20026;SDS011;10174;42.688;23.344;2023-03-23T00:22:14;148.38;;;67.95;;
20026;SDS011;10174;42.688;23.344;2023-03-23T00:24:41;137.90;;;65.80;;
20026;SDS011;10174;42.688;23.344;2023-03-23T00:27:09;134.43;;;60.17;;
20026;SDS011;10174;42.688;23.344;2023-03-23T00:29:37;135.95;;;65.20;;
20026;SDS011;10174;42.688;23.344;2023-03-23T00:32:03;126.38;;;61.55;;
20026;SDS011;10174;42.688;23.344;2023-03-23T00:34:28;134.82;;;61.17;;
20026;SDS011;10174;42.688;23.344;2023-03-23T00:36:57;134.50;;;62.42;;
20026;SDS011;10174;42.688;23.344;2023-03-23T00:39:23;131.15;;;61.40;;
20026;SDS011;10174;42.688;23.344;2023-03-23T00:41:51;138.18;;;66.25;;
20026;SDS011;10174;42.688;23.344;2023-03-23T00:44:18;133.52;;;61.63;;
20026;SDS011;10174;42.688;23.344;2023-03-23T00:46:44;138.35;;;63.33;;
20026;SDS011;10174;42.688;23.344;2023-03-23T00:49:14;132.30;;;58.75;;
20026;SDS011;10174;42.688;23.344;2023-03-23T00:51:42;133.02;;;58.78;;
20026;SDS011;10174;42.688;23.344;2023-03-23T00:54:08;135.32;;;61.22;;
20026;SDS011;10174;42.688;23.344;2023-03-23T00:56:34;136.82;;;62.15;;
20026;SDS011;10174;42.688;23.344;2023-03-23T00:59:00;129.13;;;60.95;;
20026;SDS011;10174;42.688;23.344;2023-03-23T01:01:25;145.02;;;66.38;;
20026;SDS011;10174;42.688;23.344;2023-03-23T01:03:51;158.35;;;69.93;;
20026;SDS011;10174;42.688;23.344;2023-03-23T01:06:18;170.35;;;73.43;;
20026;SDS011;10174;42.688;23.344;2023-03-23T01:08:43;176.75;;;76.80;;
20026;SDS011;10174;42.688;23.344;2023-03-23T01:11:13;192.75;;;76.78;;
20026;SDS011;10174;42.688;23.344;2023-03-23T01:13:41;200.02;;;74.97;;
20026;SDS011;10174;42.688;23.344;2023-03-23T01:16:08;172.45;;;68.80;;
20026;SDS011;10174;42.688;23.344;2023-03-23T01:18:34;165.98;;;66.63;;
20026;SDS011;10174;42.688;23.344;2023-03-23T01:21:04;165.57;;;62.97;;
20026;SDS011;10174;42.688;23.344;2023-03-23T01:23:31;137.25;;;60.40;;
20026;SDS011;10174;42.688;23.344;2023-03-23T01:26:01;172.80;;;59.72;;
20026;SDS011;10174;42.688;23.344;2023-03-23T01:28:28;162.80;;;63.42;;
20026;SDS011;10174;42.688;23.344;2023-03-23T01:30:58;200.48;;;64.43;;
20026;SDS011;10174;42.688;23.344;2023-03-23T01:33:31;204.15;;;66.75;;
20026;SDS011;10174;42.688;23.344;2023-03-23T01:35:57;198.65;;;64.30;;
20026;SDS011;10174;42.688;23.344;2023-03-23T01:38:23;184.05;;;66.72;;
20026;SDS011;10174;42.688;23.344;2023-03-23T01:40:49;214.35;;;67.95;;
20026;SDS011;10174;42.688;23.344;2023-03-23T01:43:15;162.27;;;65.38;;
20026;SDS011;10174;42.688;23.344;2023-03-23T01:45:41;154.27;;;65.55;;
20026;SDS011;10174;42.688;23.344;2023-03-23T01:48:08;155.57;;;65.95;;
20026;SDS011;10174;42.688;23.344;2023-03-23T01:50:43;152.05;;;64.93;;
20026;SDS011;10174;42.688;23.344;2023-03-23T01:53:22;149.98;;;65.47;;
20026;SDS011;10174;42.688;23.344;2023-03-23T01:55:51;147.48;;;64.57;;
20026;SDS011;10174;42.688;23.344;2023-03-23T01:58:19;150.60;;;62.17;;
20026;SDS011;10174;42.688;23.344;2023-03-23T02:00:50;149.23;;;67.88;;
20026;SDS011;10174;42.688;23.344;2023-03-23T02:03:18;161.88;;;71.07;;
20026;SDS011;10174;42.688;23.344;2023-03-23T02:05:48;161.50;;;70.30;;
20026;SDS011;10174;42.688;23.344;2023-03-23T02:08:14;158.88;;;71.07;;
20026;SDS011;10174;42.688;23.344;2023-03-23T02:10:43;154.15;;;68.55;;
20026;SDS011;10174;42.688;23.344;2023-03-23T02:13:09;152.23;;;67.07;;
20026;SDS011;10174;42.688;23.344;2023-03-23T02:15:39;148.13;;;64.13;;
20026;SDS011;10174;42.688;23.344;2023-03-23T02:20:48;147.85;;;63.60;;
20026;SDS011;10174;42.688;23.344;2023-03-23T02:28:57;147.15;;;63.00;;
20026;SDS011;10174;42.688;23.344;2023-03-23T02:34:20;140.35;;;60.25;;
20026;SDS011;10174;42.688;23.344;2023-03-23T02:36:56;134.43;;;59.88;;
20026;SDS011;10174;42.688;23.344;2023-03-23T02:39:27;140.88;;;61.20;;
20026;SDS011;10174;42.688;23.344;2023-03-23T02:42:15;135.50;;;59.42;;
20026;SDS011;10174;42.688;23.344;2023-03-23T02:44:45;138.55;;;62.75;;
20026;SDS011;10174;42.688;23.344;2023-03-23T02:47:14;144.20;;;63.03;;
20026;SDS011;10174;42.688;23.344;2023-03-23T02:49:44;136.93;;;60.78;;
20026;SDS011;10174;42.688;23.344;2023-03-23T02:52:12;137.95;;;60.20;;
20026;SDS011;10174;42.688;23.344;2023-03-23T02:54:42;133.13;;;58.78;;
20026;SDS011;10174;42.688;23.344;2023-03-23T02:57:11;101.60;;;46.58;;
20026;SDS011;10174;42.688;23.344;2023-03-23T02:59:36;104.50;;;47.47;;
20026;SDS011;10174;42.688;23.344;2023-03-23T03:04:32;97.25;;;45.03;;
20026;SDS011;10174;42.688;23.344;2023-03-23T03:10:08;86.10;;;39.08;;
20026;SDS011;10174;42.688;23.344;2023-03-23T03:13:05;70.78;;;34.80;;
20026;SDS011;10174;42.688;23.344;2023-03-23T03:15:42;63.13;;;30.55;;
20026;SDS011;10174;42.688;23.344;2023-03-23T03:18:16;67.72;;;32.60;;
20026;SDS011;10174;42.688;23.344;2023-03-23T03:20:49;62.42;;;30.40;;
20026;SDS011;10174;42.688;23.344;2023-03-23T03:23:18;59.78;;;29.27;;
20026;SDS011;10174;42.688;23.344;2023-03-23T03:25:46;62.38;;;31.30;;
20026;SDS011;10174;42.688;23.344;2023-03-23T03:28:17;72.00;;;33.88;;
20026;SDS011;10174;42.688;23.344;2023-03-23T03:30:56;68.70;;;33.42;;
20026;SDS011;10174;42.688;23.344;2023-03-23T03:33:25;79.75;;;37.13;;
20026;SDS011;10174;42.688;23.344;2023-03-23T03:35:56;87.97;;;40.65;;
20026;SDS011;10174;42.688;23.344;2023-03-23T03:38:25;66.57;;;33.63;;
20026;SDS011;10174;42.688;23.344;2023-03-23T03:40:51;65.53;;;32.78;;
20026;SDS011;10174;42.688;23.344;2023-03-23T03:43:18;56.97;;;29.40;;
20026;SDS011;10174;42.688;23.344;2023-03-23T03:45:43;57.42;;;30.23;;
20026;SDS011;10174;42.688;23.344;2023-03-23T03:48:09;73.85;;;34.30;;
20026;SDS011;10174;42.688;23.344;2023-03-23T03:50:34;74.65;;;33.08;;
20026;SDS011;10174;42.688;23.344;2023-03-23T03:53:00;77.68;;;31.58;;
20026;SDS011;10174;42.688;23.344;2023-03-23T03:55:25;69.43;;;32.22;;
20026;SDS011;10174;42.688;23.344;2023-03-23T03:57:53;62.08;;;30.80;;
20026;SDS011;10174;42.688;23.344;2023-03-23T04:00:19;66.00;;;31.90;;
20026;SDS011;10174;42.688;23.344;2023-03-23T04:02:46;68.68;;;31.58;;
20026;SDS011;10174;42.688;23.344;2023-03-23T04:05:15;77.63;;;34.20;;
20026;SDS011;10174;42.688;23.344;2023-03-23T04:07:41;70.75;;;33.47;;
20026;SDS011;10174;42.688;23.344;2023-03-23T04:10:08;72.90;;;34.67;;
20026;SDS011;10174;42.688;23.344;2023-03-23T04:12:35;71.55;;;35.17;;
20026;SDS011;10174;42.688;23.344;2023-03-23T04:15:01;76.53;;;34.45;;
20026;SDS011;10174;42.688;23.344;2023-03-23T04:17:27;78.00;;;36.15;;
20026;SDS011;10174;42.688;23.344;2023-03-23T04:19:53;79.65;;;37.67;;
20026;SDS011;10174;42.688;23.344;2023-03-23T04:22:31;85.93;;;36.25;;
20026;SDS011;10174;42.688;23.344;2023-03-23T04:24:57;78.85;;;37.05;;
20026;SDS011;10174;42.688;23.344;2023-03-23T04:27:26;77.15;;;35.70;;
20026;SDS011;10174;42.688;23.344;2023-03-23T04:29:53;90.13;;;37.42;;
20026;SDS011;10174;42.688;23.344;2023-03-23T04:32:26;73.43;;;35.03;;
20026;SDS011;10174;42.688;23.344;2023-03-23T04:34:59;74.32;;;35.88;;
20026;SDS011;10174;42.688;23.344;2023-03-23T04:37:26;80.30;;;36.85;;
20026;SDS011;10174;42.688;23.344;2023-03-23T04:39:56;83.40;;;35.47;;
20026;SDS011;10174;42.688;23.344;2023-03-23T04:42:28;74.10;;;35.22;;
20026;SDS011;10174;42.688;23.344;2023-03-23T04:44:58;72.13;;;34.55;;
20026;SDS011;10174;42.688;23.344;2023-03-23T04:47:25;78.97;;;34.75;;
20026;SDS011;10174;42.688;23.344;2023-03-23T04:49:57;82.35;;;36.10;;
20026;SDS011;10174;42.688;23.344;2023-03-23T04:52:26;68.97;;;26.73;;
20026;SDS011;10174;42.688;23.344;2023-03-23T04:54:53;53.42;;;28.40;;
20026;SDS011;10174;42.688;23.344;2023-03-23T04:57:21;85.10;;;36.15;;
20026;SDS011;10174;42.688;23.344;2023-03-23T04:59:47;78.72;;;34.75;;
20026;SDS011;10174;42.688;23.344;2023-03-23T05:02:12;81.18;;;33.90;;
20026;SDS011;10174;42.688;23.344;2023-03-23T05:04:38;71.97;;;33.00;;
20026;SDS011;10174;42.688;23.344;2023-03-23T05:07:05;73.88;;;33.72;;
20026;SDS011;10174;42.688;23.344;2023-03-23T05:09:31;84.40;;;35.22;;
20026;SDS011;10174;42.688;23.344;2023-03-23T05:11:57;69.72;;;35.03;;
20026;SDS011;10174;42.688;23.344;2023-03-23T05:14:24;75.55;;;32.33;;
20026;SDS011;10174;42.688;23.344;2023-03-23T05:16:50;77.80;;;32.58;;
20026;SDS011;10174;42.688;23.344;2023-03-23T05:19:17;70.50;;;32.22;;
20026;SDS011;10174;42.688;23.344;2023-03-23T05:21:42;65.22;;;30.67;;
20026;SDS011;10174;42.688;23.344;2023-03-23T05:24:09;68.78;;;32.15;;
20026;SDS011;10174;42.688;23.344;2023-03-23T05:26:35;57.65;;;30.52;;
20026;SDS011;10174;42.688;23.344;2023-03-23T05:29:00;59.15;;;30.17;;
20026;SDS011;10174;42.688;23.344;2023-03-23T05:31:26;61.15;;;31.13;;
20026;SDS011;10174;42.688;23.344;2023-03-23T05:33:51;60.47;;;30.40;;
20026;SDS011;10174;42.688;23.344;2023-03-23T05:36:17;60.92;;;31.40;;
20026;SDS011;10174;42.688;23.344;2023-03-23T05:38:42;65.20;;;31.20;;
20026;SDS011;10174;42.688;23.344;2023-03-23T05:41:19;70.80;;;33.75;;
20026;SDS011;10174;42.688;23.344;2023-03-23T05:43:44;72.80;;;32.13;;
20026;SDS011;10174;42.688;23.344;2023-03-23T05:46:10;69.43;;;33.03;;
20026;SDS011;10174;42.688;23.344;2023-03-23T05:48:35;65.75;;;32.65;;
20026;SDS011;10174;42.688;23.344;2023-03-23T05:51:01;76.63;;;31.60;;
20026;SDS011;10174;42.688;23.344;2023-03-23T05:53:27;62.92;;;33.05;;
20026;SDS011;10174;42.688;23.344;2023-03-23T05:55:57;66.50;;;34.08;;
20026;SDS011;10174;42.688;23.344;2023-03-23T05:58:23;67.80;;;32.00;;
20026;SDS011;10174;42.688;23.344;2023-03-23T06:00:49;63.47;;;32.58;;
20026;SDS011;10174;42.688;23.344;2023-03-23T06:03:14;66.30;;;33.78;;
20026;SDS011;10174;42.688;23.344;2023-03-23T06:05:44;77.93;;;39.53;;
20026;SDS011;10174;42.688;23.344;2023-03-23T06:08:10;67.97;;;34.75;;
20026;SDS011;10174;42.688;23.344;2023-03-23T06:10:36;76.82;;;40.25;;
20026;SDS011;10174;42.688;23.344;2023-03-23T06:13:02;82.50;;;41.03;;
20026;SDS011;10174;42.688;23.344;2023-03-23T06:15:28;84.32;;;39.22;;
20026;SDS011;10174;42.688;23.344;2023-03-23T06:17:59;131.02;;;63.45;;
20026;SDS011;10174;42.688;23.344;2023-03-23T06:20:26;107.45;;;48.65;;
20026;SDS011;10174;42.688;23.344;2023-03-23T06:22:51;90.90;;;43.70;;
20026;SDS011;10174;42.688;23.344;2023-03-23T06:25:19;107.88;;;53.25;;
20026;SDS011;10174;42.688;23.344;2023-03-23T06:27:45;104.88;;;53.53;;
20026;SDS011;10174;42.688;23.344;2023-03-23T06:30:11;85.88;;;45.50;;
20026;SDS011;10174;42.688;23.344;2023-03-23T06:32:37;100.10;;;41.90;;
20026;SDS011;10174;42.688;23.344;2023-03-23T06:35:04;86.28;;;41.33;;
20026;SDS011;10174;42.688;23.344;2023-03-23T06:37:29;87.95;;;41.75;;
20026;SDS011;10174;42.688;23.344;2023-03-23T06:39:55;82.75;;;41.42;;
20026;SDS011;10174;42.688;23.344;2023-03-23T06:42:21;98.22;;;41.63;;
20026;SDS011;10174;42.688;23.344;2023-03-23T06:44:49;82.22;;;40.95;;
20026;SDS011;10174;42.688;23.344;2023-03-23T06:47:15;89.45;;;40.75;;
20026;SDS011;10174;42.688;23.344;2023-03-23T06:49:41;86.53;;;42.20;;
20026;SDS011;10174;42.688;23.344;2023-03-23T06:52:06;87.43;;;43.17;;
20026;SDS011;10174;42.688;23.344;2023-03-23T06:54:31;82.82;;;43.63;;
20026;SDS011;10174;42.688;23.344;2023-03-23T06:56:57;88.97;;;42.25;;
20026;SDS011;10174;42.688;23.344;2023-03-23T06:59:22;99.47;;;45.42;;
20026;SDS011;10174;42.688;23.344;2023-03-23T07:01:48;81.97;;;42.08;;
20026;SDS011;10174;42.688;23.344;2023-03-23T07:04:14;86.45;;;41.90;;
20026;SDS011;10174;42.688;23.344;2023-03-23T07:06:39;86.07;;;42.72;;
20026;SDS011;10174;42.688;23.344;2023-03-23T07:09:05;81.70;;;40.83;;
20026;SDS011;10174;42.688;23.344;2023-03-23T07:11:31;79.35;;;41.67;;
20026;SDS011;10174;42.688;23.344;2023-03-23T07:13:57;95.78;;;46.97;;
20026;SDS011;10174;42.688;23.344;2023-03-23T07:16:22;114.18;;;55.88;;
20026;SDS011;10174;42.688;23.344;2023-03-23T07:18:48;89.50;;;45.42;;
20026;SDS011;10174;42.688;23.344;2023-03-23T07:21:13;78.90;;;41.20;;
20026;SDS011;10174;42.688;23.344;2023-03-23T07:23:38;82.57;;;39.55;;
20026;SDS011;10174;42.688;23.344;2023-03-23T07:26:05;77.35;;;40.65;;
20026;SDS011;10174;42.688;23.344;2023-03-23T07:28:30;80.03;;;39.40;;
20026;SDS011;10174;42.688;23.344;2023-03-23T07:30:56;77.18;;;40.08;;
20026;SDS011;10174;42.688;23.344;2023-03-23T07:33:21;70.90;;;38.22;;
20026;SDS011;10174;42.688;23.344;2023-03-23T07:35:47;82.45;;;37.58;;
20026;SDS011;10174;42.688;23.344;2023-03-23T07:38:13;75.47;;;39.55;;
20026;SDS011;10174;42.688;23.344;2023-03-23T07:40:39;77.43;;;40.78;;
20026;SDS011;10174;42.688;23.344;2023-03-23T07:43:05;74.40;;;39.65;;
20026;SDS011;10174;42.688;23.344;2023-03-23T07:45:32;75.50;;;38.47;;
20026;SDS011;10174;42.688;23.344;2023-03-23T07:47:58;82.07;;;39.63;;
20026;SDS011;10174;42.688;23.344;2023-03-23T07:50:23;74.38;;;39.53;;
20026;SDS011;10174;42.688;23.344;2023-03-23T07:52:50;76.25;;;40.33;;
20026;SDS011;10174;42.688;23.344;2023-03-23T07:55:17;88.53;;;41.45;;
20026;SDS011;10174;42.688;23.344;2023-03-23T07:57:49;77.45;;;38.40;;
20026;SDS011;10174;42.688;23.344;2023-03-23T08:00:15;74.63;;;39.22;;
20026;SDS011;10174;42.688;23.344;2023-03-23T08:02:48;75.00;;;38.08;;
20026;SDS011;10174;42.688;23.344;2023-03-23T08:05:18;65.72;;;35.22;;
20026;SDS011;10174;42.688;23.344;2023-03-23T08:07:45;75.90;;;37.03;;
20026;SDS011;10174;42.688;23.344;2023-03-23T08:10:12;71.05;;;37.08;;
20026;SDS011;10174;42.688;23.344;2023-03-23T08:12:40;64.55;;;35.47;;
20026;SDS011;10174;42.688;23.344;2023-03-23T08:15:06;67.55;;;32.33;;
20026;SDS011;10174;42.688;23.344;2023-03-23T08:17:33;69.30;;;37.25;;
20026;SDS011;10174;42.688;23.344;2023-03-23T08:20:00;55.17;;;28.85;;
20026;SDS011;10174;42.688;23.344;2023-03-23T08:22:26;66.18;;;29.00;;
20026;SDS011;10174;42.688;23.344;2023-03-23T08:24:54;60.92;;;33.15;;
20026;SDS011;10174;42.688;23.344;2023-03-23T08:27:19;55.38;;;29.67;;
20026;SDS011;10174;42.688;23.344;2023-03-23T08:29:45;56.70;;;30.38;;
20026;SDS011;10174;42.688;23.344;2023-03-23T08:32:11;58.47;;;30.15;;
20026;SDS011;10174;42.688;23.344;2023-03-23T08:34:36;48.13;;;27.30;;
20026;SDS011;10174;42.688;23.344;2023-03-23T08:37:02;43.63;;;25.63;;
20026;SDS011;10174;42.688;23.344;2023-03-23T08:39:28;57.88;;;25.98;;
20026;SDS011;10174;42.688;23.344;2023-03-23T08:41:55;38.90;;;21.73;;
20026;SDS011;10174;42.688;23.344;2023-03-23T08:44:20;44.17;;;22.95;;
20026;SDS011;10174;42.688;23.344;2023-03-23T08:46:45;42.78;;;24.63;;
20026;SDS011;10174;42.688;23.344;2023-03-23T08:49:11;38.83;;;22.10;;
20026;SDS011;10174;42.688;23.344;2023-03-23T08:51:36;42.85;;;21.23;;
20026;SDS011;10174;42.688;23.344;2023-03-23T08:54:02;22.88;;;14.38;;
20026;SDS011;10174;42.688;23.344;2023-03-23T08:56:27;40.42;;;19.55;;
20026;SDS011;10174;42.688;23.344;2023-03-23T08:58:53;31.45;;;15.88;;
20026;SDS011;10174;42.688;23.344;2023-03-23T09:01:18;24.65;;;15.20;;
20026;SDS011;10174;42.688;23.344;2023-03-23T09:03:44;24.13;;;14.50;;
20026;SDS011;10174;42.688;23.344;2023-03-23T09:06:10;32.33;;;17.17;;
20026;SDS011;10174;42.688;23.344;2023-03-23T09:08:37;31.60;;;14.98;;
20026;SDS011;10174;42.688;23.344;2023-03-23T09:11:05;20.95;;;11.00;;
20026;SDS011;10174;42.688;23.344;2023-03-23T09:13:32;17.35;;;11.85;;
20026;SDS011;10174;42.688;23.344;2023-03-23T09:15:59;19.23;;;11.40;;
20026;SDS011;10174;42.688;23.344;2023-03-23T09:18:25;19.58;;;11.02;;
20026;SDS011;10174;42.688;23.344;2023-03-23T09:20:51;19.92;;;11.02;;
20026;SDS011;10174;42.688;23.344;2023-03-23T09:23:17;13.63;;;9.43;;
20026;SDS011;10174;42.688;23.344;2023-03-23T09:25:42;21.48;;;12.68;;
20026;SDS011;10174;42.688;23.344;2023-03-23T09:28:08;21.63;;;14.00;;
20026;SDS011;10174;42.688;23.344;2023-03-23T09:30:35;25.38;;;15.48;;
20026;SDS011;10174;42.688;23.344;2023-03-23T09:33:03;22.13;;;12.55;;
20026;SDS011;10174;42.688;23.344;2023-03-23T09:35:29;20.55;;;11.93;;
20026;SDS011;10174;42.688;23.344;2023-03-23T09:37:57;20.10;;;12.43;;
20026;SDS011;10174;42.688;23.344;2023-03-23T09:40:26;26.20;;;17.38;;
20026;SDS011;10174;42.688;23.344;2023-03-23T09:46:54;35.00;;;20.23;;
20026;SDS011;10174;42.688;23.344;2023-03-23T09:54:03;26.13;;;12.57;;
20026;SDS011;10174;42.688;23.344;2023-03-23T09:56:34;23.80;;;13.77;;
20026;SDS011;10174;42.688;23.344;2023-03-23T09:59:03;12.35;;;8.57;;
20026;SDS011;10174;42.688;23.344;2023-03-23T10:01:42;30.15;;;14.93;;
20026;SDS011;10174;42.688;23.344;2023-03-23T10:04:27;13.77;;;10.35;;
20026;SDS011;10174;42.688;23.344;2023-03-23T10:06:58;14.43;;;9.10;;
20026;SDS011;10174;42.688;23.344;2023-03-23T10:09:26;23.63;;;10.30;;
20026;SDS011;10174;42.688;23.344;2023-03-23T10:20:09;13.20;;;9.43;;
20026;SDS011;10174;42.688;23.344;2023-03-23T10:25:36;16.77;;;10.02;;
20026;SDS011;10174;42.688;23.344;2023-03-23T10:28:17;22.55;;;12.40;;
20026;SDS011;10174;42.688;23.344;2023-03-23T10:30:51;13.05;;;8.90;;
20026;SDS011;10174;42.688;23.344;2023-03-23T10:33:31;12.23;;;9.10;;
20026;SDS011;10174;42.688;23.344;2023-03-23T10:36:06;15.15;;;10.35;;
20026;SDS011;10174;42.688;23.344;2023-03-23T10:38:48;19.33;;;10.60;;
20026;SDS011;10174;42.688;23.344;2023-03-23T10:41:19;18.63;;;11.90;;
20026;SDS011;10174;42.688;23.344;2023-03-23T10:43:46;16.65;;;11.15;;
20026;SDS011;10174;42.688;23.344;2023-03-23T10:48:47;20.77;;;10.50;;
20026;SDS011;10174;42.688;23.344;2023-03-23T10:51:17;18.60;;;10.13;;
20026;SDS011;10174;42.688;23.344;2023-03-23T10:53:49;16.20;;;9.90;;
20026;SDS011;10174;42.688;23.344;2023-03-23T10:56:28;23.65;;;11.32;;
20026;SDS011;10174;42.688;23.344;2023-03-23T10:58:59;12.52;;;8.40;;
20026;SDS011;10174;42.688;23.344;2023-03-23T11:01:31;25.70;;;10.82;;
20026;SDS011;10174;42.688;23.344;2023-03-23T11:03:58;25.85;;;13.73;;
20026;SDS011;10174;42.688;23.344;2023-03-23T11:06:29;13.48;;;9.30;;
20026;SDS011;10174;42.688;23.344;2023-03-23T11:09:00;15.95;;;8.82;;
20026;SDS011;10174;42.688;23.344;2023-03-23T11:11:39;13.77;;;9.50;;
20026;SDS011;10174;42.688;23.344;2023-03-23T11:14:33;15.95;;;8.50;;
20026;SDS011;10174;42.688;23.344;2023-03-23T11:17:00;23.02;;;13.18;;
20026;SDS011;10174;42.688;23.344;2023-03-23T11:19:29;17.05;;;9.88;;
20026;SDS011;10174;42.688;23.344;2023-03-23T11:22:06;13.98;;;9.75;;
20026;SDS011;10174;42.688;23.344;2023-03-23T11:24:42;13.15;;;9.30;;
20026;SDS011;10174;42.688;23.344;2023-03-23T11:27:10;21.45;;;10.18;;
20026;SDS011;10174;42.688;23.344;2023-03-23T11:29:43;17.48;;;9.93;;
20026;SDS011;10174;42.688;23.344;2023-03-23T11:32:15;32.67;;;16.25;;
20026;SDS011;10174;42.688;23.344;2023-03-23T11:34:46;13.98;;;8.90;;
20026;SDS011;10174;42.688;23.344;2023-03-23T11:37:19;15.48;;;9.77;;
20026;SDS011;10174;42.688;23.344;2023-03-23T11:42:20;42.25;;;26.85;;
20026;SDS011;10174;42.688;23.344;2023-03-23T11:45:56;12.77;;;8.73;;
20026;SDS011;10174;42.688;23.344;2023-03-23T11:50:50;19.15;;;11.15;;
20026;SDS011;10174;42.688;23.344;2023-03-23T11:56:23;11.20;;;8.40;;
20026;SDS011;10174;42.688;23.344;2023-03-23T11:58:50;11.77;;;7.75;;
20026;SDS011;10174;42.688;23.344;2023-03-23T12:09:43;15.88;;;9.90;;
20026;SDS011;10174;42.688;23.344;2023-03-23T12:15:13;17.23;;;9.02;;
20026;SDS011;10174;42.688;23.344;2023-03-23T12:23:18;19.30;;;12.48;;
20026;SDS011;10174;42.688;23.344;2023-03-23T12:26:00;16.33;;;10.50;;
20026;SDS011;10174;42.688;23.344;2023-03-23T12:31:48;21.08;;;13.43;;
20026;SDS011;10174;42.688;23.344;2023-03-23T12:34:30;14.18;;;9.30;;
20026;SDS011;10174;42.688;23.344;2023-03-23T12:45:37;14.60;;;9.20;;
20026;SDS011;10174;42.688;23.344;2023-03-23T12:48:39;12.95;;;8.70;;
20026;SDS011;10174;42.688;23.344;2023-03-23T12:51:14;11.63;;;8.45;;
20026;SDS011;10174;42.688;23.344;2023-03-23T12:53:54;13.05;;;8.52;;
20026;SDS011;10174;42.688;23.344;2023-03-23T12:59:10;16.10;;;8.73;;
20026;SDS011;10174;42.688;23.344;2023-03-23T13:01:48;11.52;;;7.95;;
20026;SDS011;10174;42.688;23.344;2023-03-23T13:04:20;15.88;;;9.55;;
20026;SDS011;10174;42.688;23.344;2023-03-23T13:06:51;18.13;;;8.57;;
20026;SDS011;10174;42.688;23.344;2023-03-23T13:11:53;19.75;;;10.20;;
20026;SDS011;10174;42.688;23.344;2023-03-23T13:22:49;15.82;;;9.13;;
20026;SDS011;10174;42.688;23.344;2023-03-23T13:28:22;21.77;;;9.48;;
20026;SDS011;10174;42.688;23.344;2023-03-23T13:30:58;23.70;;;10.13;;
20026;SDS011;10174;42.688;23.344;2023-03-23T13:33:26;13.07;;;8.30;;
20026;SDS011;10174;42.688;23.344;2023-03-23T13:35:55;16.58;;;7.93;;
20026;SDS011;10174;42.688;23.344;2023-03-23T13:38:25;15.65;;;8.48;;
20026;SDS011;10174;42.688;23.344;2023-03-23T13:40:55;14.23;;;8.50;;
20026;SDS011;10174;42.688;23.344;2023-03-23T13:43:26;14.38;;;8.30;;
20026;SDS011;10174;42.688;23.344;2023-03-23T13:45:54;15.77;;;9.05;;
20026;SDS011;10174;42.688;23.344;2023-03-23T13:48:22;12.70;;;9.10;;
20026;SDS011;10174;42.688;23.344;2023-03-23T13:53:29;14.43;;;8.57;;
20026;SDS011;10174;42.688;23.344;2023-03-23T13:59:04;21.10;;;9.10;;
20026;SDS011;10174;42.688;23.344;2023-03-23T14:01:35;14.25;;;8.40;;
20026;SDS011;10174;42.688;23.344;2023-03-23T14:04:17;16.05;;;8.32;;
20026;SDS011;10174;42.688;23.344;2023-03-23T14:06:44;11.50;;;7.50;;
20026;SDS011;10174;42.688;23.344;2023-03-23T14:09:14;12.05;;;8.13;;
20026;SDS011;10174;42.688;23.344;2023-03-23T14:11:56;14.65;;;7.57;;
20026;SDS011;10174;42.688;23.344;2023-03-23T14:14:26;17.90;;;8.52;;
20026;SDS011;10174;42.688;23.344;2023-03-23T14:19:54;24.92;;;11.90;;
20026;SDS011;10174;42.688;23.344;2023-03-23T14:22:26;15.20;;;8.93;;
20026;SDS011;10174;42.688;23.344;2023-03-23T14:24:59;11.90;;;8.02;;
20026;SDS011;10174;42.688;23.344;2023-03-23T14:27:36;12.95;;;8.02;;
20026;SDS011;10174;42.688;23.344;2023-03-23T14:30:03;19.23;;;8.75;;
20026;SDS011;10174;42.688;23.344;2023-03-23T14:32:31;15.68;;;9.35;;
20026;SDS011;10174;42.688;23.344;2023-03-23T14:34:58;14.82;;;9.30;;
20026;SDS011;10174;42.688;23.344;2023-03-23T14:37:30;15.30;;;10.15;;
20026;SDS011;10174;42.688;23.344;2023-03-23T14:39:56;27.30;;;10.68;;
20026;SDS011;10174;42.688;23.344;2023-03-23T14:42:28;14.73;;;8.15;;
20026;SDS011;10174;42.688;23.344;2023-03-23T14:44:59;16.38;;;10.70;;
20026;SDS011;10174;42.688;23.344;2023-03-23T14:47:29;12.82;;;8.10;;
20026;SDS011;10174;42.688;23.344;2023-03-23T14:49:59;13.15;;;8.05;;
20026;SDS011;10174;42.688;23.344;2023-03-23T14:52:27;17.13;;;8.23;;
20026;SDS011;10174;42.688;23.344;2023-03-23T14:54:54;12.77;;;7.70;;
20026;SDS011;10174;42.688;23.344;2023-03-23T14:59:48;15.32;;;8.88;;
20026;SDS011;10174;42.688;23.344;2023-03-23T15:02:22;17.17;;;8.80;;
20026;SDS011;10174;42.688;23.344;2023-03-23T15:04:53;15.50;;;8.93;;
20026;SDS011;10174;42.688;23.344;2023-03-23T15:07:21;21.05;;;8.70;;
20026;SDS011;10174;42.688;23.344;2023-03-23T15:09:50;15.35;;;8.82;;
20026;SDS011;10174;42.688;23.344;2023-03-23T15:12:49;15.27;;;8.48;;
20026;SDS011;10174;42.688;23.344;2023-03-23T15:15:28;13.90;;;8.27;;
20026;SDS011;10174;42.688;23.344;2023-03-23T15:17:56;22.83;;;10.85;;
20026;SDS011;10174;42.688;23.344;2023-03-23T15:20:25;16.50;;;10.32;;
20026;SDS011;10174;42.688;23.344;2023-03-23T15:22:54;15.40;;;8.70;;
20026;SDS011;10174;42.688;23.344;2023-03-23T15:27:55;18.20;;;9.43;;
20026;SDS011;10174;42.688;23.344;2023-03-23T15:32:47;14.85;;;9.07;;
20026;SDS011;10174;42.688;23.344;2023-03-23T15:35:17;24.70;;;10.52;;
20026;SDS011;10174;42.688;23.344;2023-03-23T15:37:46;20.90;;;12.25;;
20026;SDS011;10174;42.688;23.344;2023-03-23T15:40:15;20.58;;;10.00;;
20026;SDS011;10174;42.688;23.344;2023-03-23T15:42:43;19.33;;;12.10;;
20026;SDS011;10174;42.688;23.344;2023-03-23T15:52:37;15.07;;;8.70;;
20026;SDS011;10174;42.688;23.344;2023-03-23T15:55:14;20.00;;;8.98;;
20026;SDS011;10174;42.688;23.344;2023-03-23T15:57:46;36.67;;;10.25;;
20026;SDS011;10174;42.688;23.344;2023-03-23T16:00:14;19.83;;;10.40;;
20026;SDS011;10174;42.688;23.344;2023-03-23T16:02:40;25.92;;;9.43;;
20026;SDS011;10174;42.688;23.344;2023-03-23T16:05:08;19.30;;;9.93;;
20026;SDS011;10174;42.688;23.344;2023-03-23T16:07:36;27.02;;;10.02;;
20026;SDS011;10174;42.688;23.344;2023-03-23T16:10:02;21.33;;;10.73;;
20026;SDS011;10174;42.688;23.344;2023-03-23T16:12:28;25.35;;;10.73;;
20026;SDS011;10174;42.688;23.344;2023-03-23T16:14:54;35.97;;;11.27;;
20026;SDS011;10174;42.688;23.344;2023-03-23T16:17:19;32.22;;;11.20;;